sensor_id;sensor_type;location;lat;lon;timestamp;P1;durP1;ratioP1;P2;durP2;ratioP2
17943;SDS011;9097;47.028;15.444;2022-07-22T00:02:18;3.40;;;2.65;;
17943;SDS011;9097;47.028;15.444;2022-07-22T00:05:20;2.83;;;2.60;;
17943;SDS011;9097;47.028;15.444;2022-07-22T00:08:23;2.83;;;2.42;;
17943;SDS011;9097;47.028;15.444;2022-07-22T00:11:27;2.63;;;2.42;;
17943;SDS011;9097;47.028;15.444;2022-07-22T00:14:30;3.28;;;2.20;;
17943;SDS011;9097;47.028;15.444;2022-07-22T00:17:33;2.35;;;2.13;;
17943;SDS011;9097;47.028;15.444;2022-07-22T00:20:37;3.60;;;2.90;;
17943;SDS011;9097;47.028;15.444;2022-07-22T00:23:39;3.60;;;2.67;;
17943;SDS011;9097;47.028;15.444;2022-07-22T00:26:43;4.13;;;2.88;;
17943;SDS011;9097;47.028;15.444;2022-07-22T00:29:47;3.75;;;3.00;;
17943;SDS011;9097;47.028;15.444;2022-07-22T00:32:49;4.18;;;2.83;;
17943;SDS011;9097;47.028;15.444;2022-07-22T00:35:52;3.25;;;2.70;;
17943;SDS011;9097;47.028;15.444;2022-07-22T00:38:55;4.50;;;2.60;;
17943;SDS011;9097;47.028;15.444;2022-07-22T00:42:01;3.78;;;3.28;;
17943;SDS011;9097;47.028;15.444;2022-07-22T00:45:04;3.03;;;2.72;;
17943;SDS011;9097;47.028;15.444;2022-07-22T00:48:07;5.80;;;3.20;;
17943;SDS011;9097;47.028;15.444;2022-07-22T00:51:10;3.00;;;2.70;;
17943;SDS011;9097;47.028;15.444;2022-07-22T00:54:13;3.15;;;2.80;;
17943;SDS011;9097;47.028;15.444;2022-07-22T00:57:18;4.00;;;3.03;;
17943;SDS011;9097;47.028;15.444;2022-07-22T01:00:21;3.53;;;2.88;;
17943;SDS011;9097;47.028;15.444;2022-07-22T01:03:25;3.97;;;3.00;;
17943;SDS011;9097;47.028;15.444;2022-07-22T01:06:28;3.55;;;2.42;;
17943;SDS011;9097;47.028;15.444;2022-07-22T01:09:30;3.13;;;2.75;;
17943;SDS011;9097;47.028;15.444;2022-07-22T01:12:34;2.83;;;2.53;;
17943;SDS011;9097;47.028;15.444;2022-07-22T01:15:37;3.35;;;3.05;;
17943;SDS011;9097;47.028;15.444;2022-07-22T01:18:40;4.32;;;3.00;;
17943;SDS011;9097;47.028;15.444;2022-07-22T01:21:45;2.83;;;2.50;;
17943;SDS011;9097;47.028;15.444;2022-07-22T01:24:48;4.22;;;2.88;;
17943;SDS011;9097;47.028;15.444;2022-07-22T01:27:51;5.43;;;3.33;;
17943;SDS011;9097;47.028;15.444;2022-07-22T01:30:54;3.35;;;3.00;;
17943;SDS011;9097;47.028;15.444;2022-07-22T01:33:57;3.83;;;3.20;;
17943;SDS011;9097;47.028;15.444;2022-07-22T01:37:02;4.45;;;3.00;;
17943;SDS011;9097;47.028;15.444;2022-07-22T01:40:06;3.17;;;2.65;;
17943;SDS011;9097;47.028;15.444;2022-07-22T01:43:08;3.28;;;2.78;;
17943;SDS011;9097;47.028;15.444;2022-07-22T01:46:11;5.25;;;2.97;;
17943;SDS011;9097;47.028;15.444;2022-07-22T01:49:14;3.40;;;2.78;;
17943;SDS011;9097;47.028;15.444;2022-07-22T01:52:19;3.53;;;3.17;;
17943;SDS011;9097;47.028;15.444;2022-07-22T01:55:22;4.50;;;3.42;;
17943;SDS011;9097;47.028;15.444;2022-07-22T01:58:24;3.70;;;3.03;;
17943;SDS011;9097;47.028;15.444;2022-07-22T02:01:27;3.47;;;3.08;;
17943;SDS011;9097;47.028;15.444;2022-07-22T02:04:31;4.55;;;2.90;;
17943;SDS011;9097;47.028;15.444;2022-07-22T02:07:35;4.32;;;2.90;;
17943;SDS011;9097;47.028;15.444;2022-07-22T02:10:37;3.92;;;3.10;;
17943;SDS011;9097;47.028;15.444;2022-07-22T02:13:40;3.60;;;2.42;;
17943;SDS011;9097;47.028;15.444;2022-07-22T02:16:43;4.03;;;2.72;;
17943;SDS011;9097;47.028;15.444;2022-07-22T02:19:46;4.43;;;3.10;;
17943;SDS011;9097;47.028;15.444;2022-07-22T02:22:50;3.15;;;2.65;;
17943;SDS011;9097;47.028;15.444;2022-07-22T02:25:52;6.30;;;3.55;;
17943;SDS011;9097;47.028;15.444;2022-07-22T02:28:55;3.70;;;3.03;;
17943;SDS011;9097;47.028;15.444;2022-07-22T02:31:58;4.80;;;3.30;;
17943;SDS011;9097;47.028;15.444;2022-07-22T02:35:00;5.43;;;3.05;;
17943;SDS011;9097;47.028;15.444;2022-07-22T02:38:04;4.50;;;3.53;;
17943;SDS011;9097;47.028;15.444;2022-07-22T02:41:08;3.72;;;3.20;;
17943;SDS011;9097;47.028;15.444;2022-07-22T02:44:11;4.25;;;2.85;;
17943;SDS011;9097;47.028;15.444;2022-07-22T02:47:14;5.70;;;2.97;;
17943;SDS011;9097;47.028;15.444;2022-07-22T02:50:16;3.10;;;2.75;;
17943;SDS011;9097;47.028;15.444;2022-07-22T02:53:20;4.60;;;3.40;;
17943;SDS011;9097;47.028;15.444;2022-07-22T02:56:23;5.47;;;3.15;;
17943;SDS011;9097;47.028;15.444;2022-07-22T02:59:26;3.97;;;3.05;;
17943;SDS011;9097;47.028;15.444;2022-07-22T03:02:28;3.25;;;2.95;;
17943;SDS011;9097;47.028;15.444;2022-07-22T03:05:31;5.07;;;3.35;;
17943;SDS011;9097;47.028;15.444;2022-07-22T03:08:35;4.05;;;3.65;;
17943;SDS011;9097;47.028;15.444;2022-07-22T03:11:38;4.38;;;3.25;;
17943;SDS011;9097;47.028;15.444;2022-07-22T03:14:41;6.60;;;3.28;;
17943;SDS011;9097;47.028;15.444;2022-07-22T03:17:43;4.55;;;2.70;;
17943;SDS011;9097;47.028;15.444;2022-07-22T03:20:46;4.82;;;3.20;;
17943;SDS011;9097;47.028;15.444;2022-07-22T03:23:50;3.88;;;2.78;;
17943;SDS011;9097;47.028;15.444;2022-07-22T03:26:54;3.75;;;3.20;;
17943;SDS011;9097;47.028;15.444;2022-07-22T03:29:56;4.50;;;2.95;;
17943;SDS011;9097;47.028;15.444;2022-07-22T03:32:59;3.20;;;2.90;;
17943;SDS011;9097;47.028;15.444;2022-07-22T03:36:02;3.92;;;3.00;;
17943;SDS011;9097;47.028;15.444;2022-07-22T03:39:08;3.20;;;2.72;;
17943;SDS011;9097;47.028;15.444;2022-07-22T03:42:11;18.40;;;3.72;;
17943;SDS011;9097;47.028;15.444;2022-07-22T03:45:13;4.00;;;3.00;;
17943;SDS011;9097;47.028;15.444;2022-07-22T03:48:16;3.42;;;2.83;;
17943;SDS011;9097;47.028;15.444;2022-07-22T03:51:20;4.88;;;2.63;;
17943;SDS011;9097;47.028;15.444;2022-07-22T03:54:24;3.05;;;2.83;;
17943;SDS011;9097;47.028;15.444;2022-07-22T03:57:28;2.97;;;2.65;;
17943;SDS011;9097;47.028;15.444;2022-07-22T04:00:31;4.57;;;2.97;;
17943;SDS011;9097;47.028;15.444;2022-07-22T04:03:33;3.47;;;2.72;;
17943;SDS011;9097;47.028;15.444;2022-07-22T04:06:36;3.38;;;2.83;;
17943;SDS011;9097;47.028;15.444;2022-07-22T04:09:41;6.43;;;3.63;;
17943;SDS011;9097;47.028;15.444;2022-07-22T04:12:46;3.08;;;2.83;;
17943;SDS011;9097;47.028;15.444;2022-07-22T04:15:48;2.63;;;2.42;;
17943;SDS011;9097;47.028;15.444;2022-07-22T04:18:51;7.43;;;2.97;;
17943;SDS011;9097;47.028;15.444;2022-07-22T04:21:56;3.42;;;2.80;;
17943;SDS011;9097;47.028;15.444;2022-07-22T04:25:00;3.33;;;2.95;;
17943;SDS011;9097;47.028;15.444;2022-07-22T04:28:03;3.25;;;2.90;;
17943;SDS011;9097;47.028;15.444;2022-07-22T04:31:06;4.35;;;3.20;;
17943;SDS011;9097;47.028;15.444;2022-07-22T04:34:09;3.17;;;2.42;;
17943;SDS011;9097;47.028;15.444;2022-07-22T04:37:11;3.63;;;3.33;;
17943;SDS011;9097;47.028;15.444;2022-07-22T04:40:16;3.17;;;2.50;;
17943;SDS011;9097;47.028;15.444;2022-07-22T04:43:18;3.75;;;3.42;;
17943;SDS011;9097;47.028;15.444;2022-07-22T04:46:21;6.60;;;3.92;;
17943;SDS011;9097;47.028;15.444;2022-07-22T04:49:26;5.38;;;3.28;;
17943;SDS011;9097;47.028;15.444;2022-07-22T04:52:29;3.42;;;2.80;;
17943;SDS011;9097;47.028;15.444;2022-07-22T04:55:34;4.80;;;3.08;;
17943;SDS011;9097;47.028;15.444;2022-07-22T04:58:43;3.30;;;2.50;;
17943;SDS011;9097;47.028;15.444;2022-07-22T05:01:46;6.95;;;3.60;;
17943;SDS011;9097;47.028;15.444;2022-07-22T05:04:49;7.72;;;3.08;;
17943;SDS011;9097;47.028;15.444;2022-07-22T05:07:52;4.32;;;3.17;;
17943;SDS011;9097;47.028;15.444;2022-07-22T05:11:01;4.45;;;3.13;;
17943;SDS011;9097;47.028;15.444;2022-07-22T05:14:04;6.50;;;4.00;;
17943;SDS011;9097;47.028;15.444;2022-07-22T05:17:08;4.55;;;3.53;;
17943;SDS011;9097;47.028;15.444;2022-07-22T05:20:11;6.68;;;3.20;;
17943;SDS011;9097;47.028;15.444;2022-07-22T05:23:16;3.67;;;3.22;;
17943;SDS011;9097;47.028;15.444;2022-07-22T05:26:20;3.75;;;3.45;;
17943;SDS011;9097;47.028;15.444;2022-07-22T05:29:23;4.70;;;3.40;;
17943;SDS011;9097;47.028;15.444;2022-07-22T05:32:26;4.30;;;3.60;;
17943;SDS011;9097;47.028;15.444;2022-07-22T05:35:29;6.18;;;3.83;;
17943;SDS011;9097;47.028;15.444;2022-07-22T05:38:34;6.43;;;3.85;;
17943;SDS011;9097;47.028;15.444;2022-07-22T05:41:38;7.97;;;4.15;;
17943;SDS011;9097;47.028;15.444;2022-07-22T05:44:41;5.20;;;4.07;;
17943;SDS011;9097;47.028;15.444;2022-07-22T05:47:44;10.23;;;3.70;;
17943;SDS011;9097;47.028;15.444;2022-07-22T05:50:46;5.90;;;4.00;;
17943;SDS011;9097;47.028;15.444;2022-07-22T05:53:49;6.20;;;4.10;;
17943;SDS011;9097;47.028;15.444;2022-07-22T05:56:55;5.47;;;3.88;;
17943;SDS011;9097;47.028;15.444;2022-07-22T05:59:58;8.63;;;4.18;;
17943;SDS011;9097;47.028;15.444;2022-07-22T06:03:05;7.07;;;4.05;;
17943;SDS011;9097;47.028;15.444;2022-07-22T06:06:07;10.75;;;4.93;;
17943;SDS011;9097;47.028;15.444;2022-07-22T06:09:10;8.60;;;4.07;;
17943;SDS011;9097;47.028;15.444;2022-07-22T06:12:14;5.43;;;4.20;;
17943;SDS011;9097;47.028;15.444;2022-07-22T06:15:19;6.05;;;4.97;;
17943;SDS011;9097;47.028;15.444;2022-07-22T06:18:23;6.45;;;4.93;;
17943;SDS011;9097;47.028;15.444;2022-07-22T06:21:25;7.47;;;4.75;;
17943;SDS011;9097;47.028;15.444;2022-07-22T06:24:29;5.78;;;3.80;;
17943;SDS011;9097;47.028;15.444;2022-07-22T06:27:34;8.95;;;4.38;;
17943;SDS011;9097;47.028;15.444;2022-07-22T06:30:37;8.15;;;5.13;;
17943;SDS011;9097;47.028;15.444;2022-07-22T06:33:40;6.53;;;4.60;;
17943;SDS011;9097;47.028;15.444;2022-07-22T06:36:43;6.85;;;5.30;;
17943;SDS011;9097;47.028;15.444;2022-07-22T06:39:47;7.07;;;4.70;;
17943;SDS011;9097;47.028;15.444;2022-07-22T06:42:53;8.05;;;5.30;;
17943;SDS011;9097;47.028;15.444;2022-07-22T06:45:57;7.53;;;4.82;;
17943;SDS011;9097;47.028;15.444;2022-07-22T06:49:00;5.80;;;4.75;;
17943;SDS011;9097;47.028;15.444;2022-07-22T06:52:05;8.18;;;4.78;;
17943;SDS011;9097;47.028;15.444;2022-07-22T06:55:14;6.15;;;4.68;;
17943;SDS011;9097;47.028;15.444;2022-07-22T06:58:18;5.88;;;4.30;;
17943;SDS011;9097;47.028;15.444;2022-07-22T07:01:21;4.82;;;3.72;;
17943;SDS011;9097;47.028;15.444;2022-07-22T07:04:26;6.18;;;3.85;;
17943;SDS011;9097;47.028;15.444;2022-07-22T07:07:28;5.30;;;3.97;;
17943;SDS011;9097;47.028;15.444;2022-07-22T07:10:31;4.45;;;3.65;;
17943;SDS011;9097;47.028;15.444;2022-07-22T07:13:38;7.15;;;3.85;;
17943;SDS011;9097;47.028;15.444;2022-07-22T07:16:40;11.70;;;3.92;;
17943;SDS011;9097;47.028;15.444;2022-07-22T07:19:43;6.22;;;4.22;;
17943;SDS011;9097;47.028;15.444;2022-07-22T07:22:46;5.65;;;4.38;;
17943;SDS011;9097;47.028;15.444;2022-07-22T07:25:50;5.43;;;4.35;;
17943;SDS011;9097;47.028;15.444;2022-07-22T07:28:54;5.95;;;4.03;;
17943;SDS011;9097;47.028;15.444;2022-07-22T07:31:57;5.18;;;4.50;;
17943;SDS011;9097;47.028;15.444;2022-07-22T07:35:00;7.63;;;5.25;;
17943;SDS011;9097;47.028;15.444;2022-07-22T07:38:03;4.63;;;3.90;;
17943;SDS011;9097;47.028;15.444;2022-07-22T07:41:05;8.20;;;4.35;;
17943;SDS011;9097;47.028;15.444;2022-07-22T07:44:09;4.53;;;3.67;;
17943;SDS011;9097;47.028;15.444;2022-07-22T07:50:21;6.03;;;3.30;;
17943;SDS011;9097;47.028;15.444;2022-07-22T07:53:25;5.60;;;4.13;;
17943;SDS011;9097;47.028;15.444;2022-07-22T07:56:27;4.82;;;3.97;;
17943;SDS011;9097;47.028;15.444;2022-07-22T07:59:32;3.92;;;3.55;;
17943;SDS011;9097;47.028;15.444;2022-07-22T08:02:35;7.20;;;4.50;;
17943;SDS011;9097;47.028;15.444;2022-07-22T08:05:38;8.35;;;4.53;;
17943;SDS011;9097;47.028;15.444;2022-07-22T08:08:47;7.28;;;4.60;;
17943;SDS011;9097;47.028;15.444;2022-07-22T08:11:50;3.65;;;3.35;;
17943;SDS011;9097;47.028;15.444;2022-07-22T08:14:54;5.30;;;3.72;;
17943;SDS011;9097;47.028;15.444;2022-07-22T08:17:57;4.15;;;3.60;;
17943;SDS011;9097;47.028;15.444;2022-07-22T08:21:00;4.22;;;3.83;;
17943;SDS011;9097;47.028;15.444;2022-07-22T08:24:03;3.92;;;3.53;;
17943;SDS011;9097;47.028;15.444;2022-07-22T08:27:06;5.40;;;4.25;;
17943;SDS011;9097;47.028;15.444;2022-07-22T08:30:27;3.95;;;3.55;;
17943;SDS011;9097;47.028;15.444;2022-07-22T08:33:30;4.18;;;3.65;;
17943;SDS011;9097;47.028;15.444;2022-07-22T08:36:33;6.22;;;3.80;;
17943;SDS011;9097;47.028;15.444;2022-07-22T08:39:49;5.03;;;3.75;;
17943;SDS011;9097;47.028;15.444;2022-07-22T08:42:53;6.43;;;4.13;;
17943;SDS011;9097;47.028;15.444;2022-07-22T08:45:57;4.97;;;4.28;;
17943;SDS011;9097;47.028;15.444;2022-07-22T08:49:07;5.05;;;3.75;;
17943;SDS011;9097;47.028;15.444;2022-07-22T08:52:10;4.97;;;3.97;;
17943;SDS011;9097;47.028;15.444;2022-07-22T08:55:13;9.40;;;4.88;;
17943;SDS011;9097;47.028;15.444;2022-07-22T08:58:17;4.80;;;3.55;;
17943;SDS011;9097;47.028;15.444;2022-07-22T09:01:21;4.53;;;3.88;;
17943;SDS011;9097;47.028;15.444;2022-07-22T09:04:24;3.78;;;3.08;;
17943;SDS011;9097;47.028;15.444;2022-07-22T09:07:27;6.10;;;3.92;;
17943;SDS011;9097;47.028;15.444;2022-07-22T09:10:31;7.97;;;3.75;;
17943;SDS011;9097;47.028;15.444;2022-07-22T09:13:34;7.32;;;4.70;;
17943;SDS011;9097;47.028;15.444;2022-07-22T09:16:51;8.32;;;5.47;;
17943;SDS011;9097;47.028;15.444;2022-07-22T09:19:54;4.80;;;3.75;;
17943;SDS011;9097;47.028;15.444;2022-07-22T09:22:57;6.30;;;4.50;;
17943;SDS011;9097;47.028;15.444;2022-07-22T09:26:00;5.65;;;4.15;;
17943;SDS011;9097;47.028;15.444;2022-07-22T09:29:03;5.15;;;4.15;;
17943;SDS011;9097;47.028;15.444;2022-07-22T09:32:09;4.28;;;3.83;;
17943;SDS011;9097;47.028;15.444;2022-07-22T09:35:13;5.05;;;4.07;;
17943;SDS011;9097;47.028;15.444;2022-07-22T09:38:17;7.05;;;4.75;;
17943;SDS011;9097;47.028;15.444;2022-07-22T09:41:20;3.88;;;3.15;;
17943;SDS011;9097;47.028;15.444;2022-07-22T09:44:23;9.75;;;5.15;;
17943;SDS011;9097;47.028;15.444;2022-07-22T09:47:30;4.75;;;3.55;;
17943;SDS011;9097;47.028;15.444;2022-07-22T09:50:33;5.60;;;4.53;;
17943;SDS011;9097;47.028;15.444;2022-07-22T09:56:59;6.38;;;3.78;;
17943;SDS011;9097;47.028;15.444;2022-07-22T10:03:27;4.43;;;3.33;;
17943;SDS011;9097;47.028;15.444;2022-07-22T10:06:30;5.07;;;3.65;;
17943;SDS011;9097;47.028;15.444;2022-07-22T10:09:35;6.15;;;4.40;;
17943;SDS011;9097;47.028;15.444;2022-07-22T10:12:39;4.25;;;3.60;;
17943;SDS011;9097;47.028;15.444;2022-07-22T10:15:42;3.95;;;3.08;;
17943;SDS011;9097;47.028;15.444;2022-07-22T10:18:58;4.85;;;4.05;;
17943;SDS011;9097;47.028;15.444;2022-07-22T10:25:32;4.18;;;3.75;;
17943;SDS011;9097;47.028;15.444;2022-07-22T10:28:36;6.47;;;3.60;;
17943;SDS011;9097;47.028;15.444;2022-07-22T10:31:46;5.32;;;4.60;;
17943;SDS011;9097;47.028;15.444;2022-07-22T10:38:14;4.75;;;3.58;;
17943;SDS011;9097;47.028;15.444;2022-07-22T10:41:27;6.50;;;4.38;;
17943;SDS011;9097;47.028;15.444;2022-07-22T10:44:46;5.47;;;4.05;;
17943;SDS011;9097;47.028;15.444;2022-07-22T10:47:54;4.60;;;3.45;;
17943;SDS011;9097;47.028;15.444;2022-07-22T10:51:07;3.30;;;3.00;;
17943;SDS011;9097;47.028;15.444;2022-07-22T10:54:26;6.10;;;4.15;;
17943;SDS011;9097;47.028;15.444;2022-07-22T10:57:29;4.53;;;3.35;;
17943;SDS011;9097;47.028;15.444;2022-07-22T11:00:39;7.90;;;3.45;;
17943;SDS011;9097;47.028;15.444;2022-07-22T11:03:54;5.63;;;4.05;;
17943;SDS011;9097;47.028;15.444;2022-07-22T11:06:57;6.55;;;4.15;;
17943;SDS011;9097;47.028;15.444;2022-07-22T11:10:11;3.10;;;2.80;;
17943;SDS011;9097;47.028;15.444;2022-07-22T11:16:42;8.77;;;3.78;;
17943;SDS011;9097;47.028;15.444;2022-07-22T11:19:46;4.18;;;3.15;;
17943;SDS011;9097;47.028;15.444;2022-07-22T11:22:53;6.05;;;3.50;;
17943;SDS011;9097;47.028;15.444;2022-07-22T11:25:58;5.80;;;3.95;;
17943;SDS011;9097;47.028;15.444;2022-07-22T11:29:02;4.45;;;3.40;;
17943;SDS011;9097;47.028;15.444;2022-07-22T11:32:06;6.40;;;4.10;;
17943;SDS011;9097;47.028;15.444;2022-07-22T11:35:10;5.68;;;4.20;;
17943;SDS011;9097;47.028;15.444;2022-07-22T11:41:41;5.43;;;2.83;;
17943;SDS011;9097;47.028;15.444;2022-07-22T11:44:44;3.83;;;2.40;;
17943;SDS011;9097;47.028;15.444;2022-07-22T11:50:58;4.18;;;3.08;;
17943;SDS011;9097;47.028;15.444;2022-07-22T11:54:00;4.57;;;3.55;;
17943;SDS011;9097;47.028;15.444;2022-07-22T11:57:05;4.60;;;3.80;;
17943;SDS011;9097;47.028;15.444;2022-07-22T12:00:14;4.88;;;3.72;;
17943;SDS011;9097;47.028;15.444;2022-07-22T12:03:20;4.53;;;4.00;;
17943;SDS011;9097;47.028;15.444;2022-07-22T12:06:23;4.15;;;3.75;;
17943;SDS011;9097;47.028;15.444;2022-07-22T12:09:26;4.63;;;3.42;;
17943;SDS011;9097;47.028;15.444;2022-07-22T12:12:40;4.40;;;3.45;;
17943;SDS011;9097;47.028;15.444;2022-07-22T12:15:57;4.75;;;3.42;;
17943;SDS011;9097;47.028;15.444;2022-07-22T12:22:29;4.15;;;3.67;;
17943;SDS011;9097;47.028;15.444;2022-07-22T12:25:33;4.38;;;3.13;;
17943;SDS011;9097;47.028;15.444;2022-07-22T12:28:37;4.88;;;4.03;;
17943;SDS011;9097;47.028;15.444;2022-07-22T12:31:41;4.13;;;3.25;;
17943;SDS011;9097;47.028;15.444;2022-07-22T12:34:45;4.75;;;3.80;;
17943;SDS011;9097;47.028;15.444;2022-07-22T12:37:49;5.65;;;3.80;;
17943;SDS011;9097;47.028;15.444;2022-07-22T12:44:18;5.13;;;3.63;;
17943;SDS011;9097;47.028;15.444;2022-07-22T12:50:53;4.75;;;3.30;;
17943;SDS011;9097;47.028;15.444;2022-07-22T12:53:57;5.25;;;3.78;;
17943;SDS011;9097;47.028;15.444;2022-07-22T12:57:00;5.35;;;4.35;;
17943;SDS011;9097;47.028;15.444;2022-07-22T13:00:05;4.18;;;3.58;;
17943;SDS011;9097;47.028;15.444;2022-07-22T13:03:27;5.32;;;4.00;;
17943;SDS011;9097;47.028;15.444;2022-07-22T13:06:30;7.18;;;3.28;;
17943;SDS011;9097;47.028;15.444;2022-07-22T13:09:33;5.60;;;4.43;;
17943;SDS011;9097;47.028;15.444;2022-07-22T13:12:35;8.10;;;4.03;;
17943;SDS011;9097;47.028;15.444;2022-07-22T13:15:40;4.40;;;4.00;;
17943;SDS011;9097;47.028;15.444;2022-07-22T13:18:49;4.13;;;3.72;;
17943;SDS011;9097;47.028;15.444;2022-07-22T13:31:41;3.53;;;3.22;;
17943;SDS011;9097;47.028;15.444;2022-07-22T13:34:43;4.57;;;3.38;;
17943;SDS011;9097;47.028;15.444;2022-07-22T13:37:48;5.15;;;3.92;;
17943;SDS011;9097;47.028;15.444;2022-07-22T13:40:51;5.22;;;3.58;;
17943;SDS011;9097;47.028;15.444;2022-07-22T13:43:54;4.72;;;3.70;;
17943;SDS011;9097;47.028;15.444;2022-07-22T13:46:58;5.13;;;3.90;;
17943;SDS011;9097;47.028;15.444;2022-07-22T13:50:02;4.25;;;3.55;;
17943;SDS011;9097;47.028;15.444;2022-07-22T13:53:04;4.28;;;3.20;;
17943;SDS011;9097;47.028;15.444;2022-07-22T13:59:23;6.10;;;3.75;;
17943;SDS011;9097;47.028;15.444;2022-07-22T14:02:27;4.13;;;3.53;;
17943;SDS011;9097;47.028;15.444;2022-07-22T14:05:30;5.13;;;3.53;;
17943;SDS011;9097;47.028;15.444;2022-07-22T14:11:38;3.88;;;3.47;;
17943;SDS011;9097;47.028;15.444;2022-07-22T14:17:50;4.80;;;3.63;;
17943;SDS011;9097;47.028;15.444;2022-07-22T14:20:53;5.82;;;3.67;;
17943;SDS011;9097;47.028;15.444;2022-07-22T14:23:56;3.75;;;3.08;;
17943;SDS011;9097;47.028;15.444;2022-07-22T14:26:59;5.38;;;3.63;;
17943;SDS011;9097;47.028;15.444;2022-07-22T14:30:02;5.07;;;3.28;;
17943;SDS011;9097;47.028;15.444;2022-07-22T14:33:06;45.88;;;6.05;;
17943;SDS011;9097;47.028;15.444;2022-07-22T14:39:17;33.85;;;8.48;;
17943;SDS011;9097;47.028;15.444;2022-07-22T14:42:20;10.75;;;4.40;;
17943;SDS011;9097;47.028;15.444;2022-07-22T14:45:23;6.85;;;4.07;;
17943;SDS011;9097;47.028;15.444;2022-07-22T14:48:27;8.93;;;3.95;;
17943;SDS011;9097;47.028;15.444;2022-07-22T14:51:30;19.65;;;5.63;;
17943;SDS011;9097;47.028;15.444;2022-07-22T14:54:39;5.00;;;4.13;;
17943;SDS011;9097;47.028;15.444;2022-07-22T14:57:42;4.00;;;3.08;;
17943;SDS011;9097;47.028;15.444;2022-07-22T15:00:45;5.20;;;3.17;;
17943;SDS011;9097;47.028;15.444;2022-07-22T15:03:49;7.95;;;3.80;;
17943;SDS011;9097;47.028;15.444;2022-07-22T15:06:52;3.65;;;3.35;;
17943;SDS011;9097;47.028;15.444;2022-07-22T15:09:55;10.77;;;3.67;;
17943;SDS011;9097;47.028;15.444;2022-07-22T15:12:58;5.05;;;4.15;;
17943;SDS011;9097;47.028;15.444;2022-07-22T15:16:08;4.55;;;3.85;;
17943;SDS011;9097;47.028;15.444;2022-07-22T15:19:12;6.43;;;4.20;;
17943;SDS011;9097;47.028;15.444;2022-07-22T15:22:15;6.68;;;3.88;;
17943;SDS011;9097;47.028;15.444;2022-07-22T15:25:18;7.68;;;4.88;;
17943;SDS011;9097;47.028;15.444;2022-07-22T15:28:22;6.63;;;3.78;;
17943;SDS011;9097;47.028;15.444;2022-07-22T15:31:25;3.83;;;3.47;;
17943;SDS011;9097;47.028;15.444;2022-07-22T15:34:31;4.35;;;3.45;;
17943;SDS011;9097;47.028;15.444;2022-07-22T15:37:34;5.30;;;4.03;;
17943;SDS011;9097;47.028;15.444;2022-07-22T15:43:50;4.68;;;3.38;;
17943;SDS011;9097;47.028;15.444;2022-07-22T15:46:53;6.10;;;3.83;;
17943;SDS011;9097;47.028;15.444;2022-07-22T15:49:57;6.00;;;4.47;;
17943;SDS011;9097;47.028;15.444;2022-07-22T15:53:08;6.93;;;4.38;;
17943;SDS011;9097;47.028;15.444;2022-07-22T15:56:11;4.43;;;3.90;;
17943;SDS011;9097;47.028;15.444;2022-07-22T15:59:14;6.30;;;4.75;;
17943;SDS011;9097;47.028;15.444;2022-07-22T16:02:34;5.32;;;4.20;;
17943;SDS011;9097;47.028;15.444;2022-07-22T16:05:39;4.03;;;3.38;;
17943;SDS011;9097;47.028;15.444;2022-07-22T16:08:42;7.07;;;3.78;;
17943;SDS011;9097;47.028;15.444;2022-07-22T16:11:45;5.95;;;3.80;;
17943;SDS011;9097;47.028;15.444;2022-07-22T16:14:48;5.97;;;4.18;;
17943;SDS011;9097;47.028;15.444;2022-07-22T16:17:51;5.65;;;3.97;;
17943;SDS011;9097;47.028;15.444;2022-07-22T16:20:55;5.40;;;3.88;;
17943;SDS011;9097;47.028;15.444;2022-07-22T16:23:59;5.22;;;3.50;;
17943;SDS011;9097;47.028;15.444;2022-07-22T16:27:03;3.83;;;2.97;;
17943;SDS011;9097;47.028;15.444;2022-07-22T16:30:06;4.15;;;2.83;;
17943;SDS011;9097;47.028;15.444;2022-07-22T16:33:09;6.70;;;3.60;;
17943;SDS011;9097;47.028;15.444;2022-07-22T16:36:14;4.30;;;3.60;;
17943;SDS011;9097;47.028;15.444;2022-07-22T16:39:17;3.08;;;2.58;;
17943;SDS011;9097;47.028;15.444;2022-07-22T16:42:20;3.65;;;2.92;;
17943;SDS011;9097;47.028;15.444;2022-07-22T16:45:23;4.13;;;3.13;;
17943;SDS011;9097;47.028;15.444;2022-07-22T16:48:26;4.43;;;3.08;;
17943;SDS011;9097;47.028;15.444;2022-07-22T16:51:32;4.22;;;2.97;;
17943;SDS011;9097;47.028;15.444;2022-07-22T16:54:36;4.72;;;3.08;;
17943;SDS011;9097;47.028;15.444;2022-07-22T16:57:38;7.22;;;3.05;;
17943;SDS011;9097;47.028;15.444;2022-07-22T17:00:42;3.38;;;3.08;;
17943;SDS011;9097;47.028;15.444;2022-07-22T17:03:46;4.28;;;2.90;;
17943;SDS011;9097;47.028;15.444;2022-07-22T17:06:50;2.95;;;2.65;;
17943;SDS011;9097;47.028;15.444;2022-07-22T17:09:53;3.25;;;2.95;;
17943;SDS011;9097;47.028;15.444;2022-07-22T17:12:55;3.53;;;2.90;;
17943;SDS011;9097;47.028;15.444;2022-07-22T17:16:00;3.67;;;3.05;;
17943;SDS011;9097;47.028;15.444;2022-07-22T17:19:04;4.05;;;2.65;;
17943;SDS011;9097;47.028;15.444;2022-07-22T17:22:09;6.00;;;3.00;;
17943;SDS011;9097;47.028;15.444;2022-07-22T17:25:12;4.25;;;3.22;;
17943;SDS011;9097;47.028;15.444;2022-07-22T17:28:15;3.78;;;2.42;;
17943;SDS011;9097;47.028;15.444;2022-07-22T17:31:17;3.10;;;2.75;;
17943;SDS011;9097;47.028;15.444;2022-07-22T17:34:20;4.32;;;2.85;;
17943;SDS011;9097;47.028;15.444;2022-07-22T17:37:24;3.83;;;2.78;;
17943;SDS011;9097;47.028;15.444;2022-07-22T17:40:27;3.15;;;2.85;;
17943;SDS011;9097;47.028;15.444;2022-07-22T17:43:30;4.72;;;3.28;;
17943;SDS011;9097;47.028;15.444;2022-07-22T17:46:32;4.82;;;2.95;;
17943;SDS011;9097;47.028;15.444;2022-07-22T17:49:35;7.38;;;3.08;;
17943;SDS011;9097;47.028;15.444;2022-07-22T17:52:41;4.07;;;3.53;;
17943;SDS011;9097;47.028;15.444;2022-07-22T17:55:44;4.40;;;3.00;;
17943;SDS011;9097;47.028;15.444;2022-07-22T17:58:48;4.15;;;3.10;;
17943;SDS011;9097;47.028;15.444;2022-07-22T18:01:51;2.95;;;2.58;;
17943;SDS011;9097;47.028;15.444;2022-07-22T18:04:58;3.97;;;3.00;;
17943;SDS011;9097;47.028;15.444;2022-07-22T18:08:03;3.42;;;3.13;;
17943;SDS011;9097;47.028;15.444;2022-07-22T18:11:06;3.55;;;2.72;;
17943;SDS011;9097;47.028;15.444;2022-07-22T18:14:11;2.88;;;2.63;;
17943;SDS011;9097;47.028;15.444;2022-07-22T18:17:14;4.13;;;2.95;;
17943;SDS011;9097;47.028;15.444;2022-07-22T18:20:17;3.38;;;3.08;;
17943;SDS011;9097;47.028;15.444;2022-07-22T18:23:21;3.90;;;3.00;;
17943;SDS011;9097;47.028;15.444;2022-07-22T18:26:25;3.72;;;2.90;;
17943;SDS011;9097;47.028;15.444;2022-07-22T18:29:27;3.28;;;2.67;;
17943;SDS011;9097;47.028;15.444;2022-07-22T18:32:30;5.80;;;3.47;;
17943;SDS011;9097;47.028;15.444;2022-07-22T18:35:33;3.90;;;2.72;;
17943;SDS011;9097;47.028;15.444;2022-07-22T18:38:38;3.10;;;2.60;;
17943;SDS011;9097;47.028;15.444;2022-07-22T18:41:40;3.53;;;3.00;;
17943;SDS011;9097;47.028;15.444;2022-07-22T18:44:43;3.45;;;3.15;;
17943;SDS011;9097;47.028;15.444;2022-07-22T18:47:46;5.82;;;3.25;;
17943;SDS011;9097;47.028;15.444;2022-07-22T18:50:49;3.65;;;3.25;;
17943;SDS011;9097;47.028;15.444;2022-07-22T18:53:53;7.05;;;3.13;;
17943;SDS011;9097;47.028;15.444;2022-07-22T18:56:56;4.00;;;2.90;;
17943;SDS011;9097;47.028;15.444;2022-07-22T18:59:59;3.53;;;3.08;;
17943;SDS011;9097;47.028;15.444;2022-07-22T19:03:02;5.15;;;4.30;;
17943;SDS011;9097;47.028;15.444;2022-07-22T19:06:05;5.65;;;3.63;;
17943;SDS011;9097;47.028;15.444;2022-07-22T19:09:13;5.18;;;3.30;;
17943;SDS011;9097;47.028;15.444;2022-07-22T19:12:17;3.75;;;3.38;;
17943;SDS011;9097;47.028;15.444;2022-07-22T19:15:20;3.97;;;3.22;;
17943;SDS011;9097;47.028;15.444;2022-07-22T19:18:26;5.43;;;4.05;;
17943;SDS011;9097;47.028;15.444;2022-07-22T19:21:30;4.45;;;3.50;;
17943;SDS011;9097;47.028;15.444;2022-07-22T19:24:34;5.63;;;3.60;;
17943;SDS011;9097;47.028;15.444;2022-07-22T19:27:39;8.63;;;4.63;;
17943;SDS011;9097;47.028;15.444;2022-07-22T19:30:42;8.75;;;6.45;;
17943;SDS011;9097;47.028;15.444;2022-07-22T19:33:46;7.20;;;5.50;;